Airport Name : Viracopos

Other Name : CampinaViracopos

ICAO : SBKP

IATA : VCP

FAA :

Latitude : -23.007383

Longitude : -47.134522

Country : Brazil

Local Date and Time : 1/23/2018 3:32:00 AM

 

TAF (Terminal Aerodrome Forecast)

TAF SBKP 230103Z 2306/2406 13008KT CAVOK TN21/2308Z TX32/2317Z BECMG 2311/2313 05005KT FEW040 BECMG 2314/2316 32008KT SCT045 TEMPO 2318/2324 24010KT 8000 TSRA SCT040 FEW050CB BECMG 2400/2402 12005KT CAVOK RMK PGN

 

METAR (METeorological Aerodrome Report)

SBKP 230500Z 27007KT 9999 VCTS FEW040 FEW045CB BKN090 22/18 Q10 14

SBKP 230400Z 09005KT 9999 VCTS FEW045CB BKN100 23/18 Q1014

SBKP 230300Z 11009KT 9999 VCTS FEW045CB BKN100 23/18 Q1014

SBKP 230200Z 11009KT 9999 VCTS FEW045CB BKN100 23/18 Q1014